Time;durP1;ratioP1;P1;durP2;ratioP2;P2;SDS_P1;SDS_P2;PMS_P1;PMS_P2;Temp;Humidity;BMP_temperature;BMP_pressure;BME280_temperature;BME280_humidity;BME280_pressure;Samples;Min_cycle;Max_cycle;Signal;HPM_P1;HPM_P2
2023/12/02 00:01:24;;;;;;;33.78;16.05;;;0.50;99.90;;;;;;5039598;28;20037;-86
2023/12/02 00:03:50;;;;;;;32.67;16.13;;;0.50;99.90;;;;;;5021515;28;20095;-85
2023/12/02 00:06:16;;;;;;;30.75;15.68;;;0.50;99.90;;;;;;5036312;28;20030;-85
2023/12/02 00:08:42;;;;;;;37.33;17.50;;;0.50;99.90;;;;;;5050643;28;20516;-86
2023/12/02 00:11:07;;;;;;;34.58;17.35;;;0.50;99.90;;;;;;5034994;28;20039;-85
2023/12/02 00:13:33;;;;;;;29.48;15.20;;;0.50;99.90;;;;;;5037914;28;20029;-86
2023/12/02 00:16:00;;;;;;;30.05;15.75;;;0.40;99.90;;;;;;5034065;28;20026;-87
2023/12/02 00:18:26;;;;;;;27.17;13.50;;;0.50;99.90;;;;;;5027745;28;20027;-86
2023/12/02 00:20:52;;;;;;;26.38;13.82;;;0.40;99.90;;;;;;5035198;28;20069;-84
2023/12/02 00:23:18;;;;;;;28.63;15.38;;;0.40;99.90;;;;;;5032689;28;20034;-86
2023/12/02 00:25:44;;;;;;;35.25;15.23;;;0.40;99.90;;;;;;5036067;28;20025;-86
2023/12/02 00:28:09;;;;;;;28.15;14.60;;;0.40;99.90;;;;;;5033040;28;20025;-86
2023/12/02 00:30:35;;;;;;;30.55;15.25;;;0.40;99.90;;;;;;5033700;28;20042;-87
2023/12/02 00:33:00;;;;;;;28.65;15.30;;;0.40;99.90;;;;;;5034639;28;20082;-86
2023/12/02 00:35:26;;;;;;;33.70;16.63;;;0.40;99.90;;;;;;5039673;28;20062;-87
2023/12/02 00:37:51;;;;;;;33.15;15.85;;;0.40;99.90;;;;;;5034454;28;20092;-87
2023/12/02 00:40:17;;;;;;;32.95;15.57;;;0.40;99.90;;;;;;5036500;28;20029;-85
2023/12/02 00:42:43;;;;;;;28.08;14.95;;;0.40;99.90;;;;;;5032746;28;20430;-87
2023/12/02 00:45:09;;;;;;;28.00;14.98;;;0.40;99.90;;;;;;5034253;28;20025;-86
2023/12/02 00:47:34;;;;;;;27.95;14.95;;;0.30;99.90;;;;;;5039659;28;20032;-84
2023/12/02 00:50:00;;;;;;;30.50;16.05;;;0.30;99.90;;;;;;5039722;28;20038;-87
2023/12/02 00:52:25;;;;;;;30.80;14.85;;;0.30;99.90;;;;;;5040063;28;20048;-85
2023/12/02 00:54:51;;;;;;;31.20;15.18;;;0.30;99.90;;;;;;5038891;28;20170;-87
2023/12/02 00:57:18;;;;;;;29.80;16.17;;;0.40;99.90;;;;;;5044407;28;20021;-87
2023/12/02 00:59:44;;;;;;;35.22;17.00;;;0.40;99.90;;;;;;5025816;28;20056;-86
2023/12/02 01:02:10;;;;;;;34.20;17.35;;;0.40;99.90;;;;;;5046382;28;20021;-87
2023/12/02 01:04:37;;;;;;;33.17;16.40;;;0.40;99.90;;;;;;5039687;28;20033;-85
2023/12/02 01:07:02;;;;;;;32.83;16.42;;;0.40;99.90;;;;;;5040704;28;20029;-86
2023/12/02 01:09:28;;;;;;;36.28;17.80;;;0.40;99.90;;;;;;5045041;28;20031;-86
2023/12/02 01:11:53;;;;;;;36.17;16.10;;;0.40;99.90;;;;;;5037239;28;20041;-87
2023/12/02 01:14:19;;;;;;;34.67;17.17;;;0.40;99.90;;;;;;5035716;28;20133;-87
2023/12/02 01:16:44;;;;;;;33.92;16.25;;;0.40;99.90;;;;;;5035507;28;20030;-85
2023/12/02 01:19:10;;;;;;;33.88;16.13;;;0.40;99.90;;;;;;5034890;28;20101;-86
2023/12/02 01:21:35;;;;;;;34.47;16.65;;;0.40;99.90;;;;;;5038786;28;20032;-86
2023/12/02 01:24:01;;;;;;;31.67;15.23;;;0.40;99.90;;;;;;5037099;28;20064;-86
2023/12/02 01:26:27;;;;;;;35.33;18.20;;;0.40;99.90;;;;;;5036837;28;20022;-86
2023/12/02 01:28:52;;;;;;;29.45;15.57;;;0.40;99.90;;;;;;5036797;28;20489;-87
2023/12/02 01:31:18;;;;;;;30.50;15.55;;;0.40;99.90;;;;;;5034798;28;20030;-84
2023/12/02 01:33:43;;;;;;;33.33;15.85;;;0.50;99.90;;;;;;5052647;28;20029;-87
2023/12/02 01:36:13;;;;;;;37.75;18.15;;;0.40;99.90;;;;;;5036854;28;20028;-87
2023/12/02 01:38:38;;;;;;;31.23;15.23;;;0.40;99.90;;;;;;5038047;28;20026;-87
2023/12/02 01:41:04;;;;;;;35.13;15.60;;;0.40;99.90;;;;;;5035305;28;20085;-86
2023/12/02 01:43:30;;;;;;;31.58;15.27;;;0.40;99.90;;;;;;5036344;28;20029;-86
2023/12/02 01:45:56;;;;;;;28.73;14.25;;;0.40;99.90;;;;;;5033913;28;20096;-87
2023/12/02 01:48:29;;;;;;;33.47;15.95;;;0.40;99.90;;;;;;5037222;28;20148;-86
2023/12/02 01:50:55;;;;;;;31.53;15.77;;;0.30;99.90;;;;;;5036788;28;20036;-86
2023/12/02 01:53:21;;;;;;;30.63;15.73;;;0.30;99.90;;;;;;5034724;28;20658;-86
2023/12/02 01:55:47;;;;;;;39.72;19.13;;;0.40;99.90;;;;;;5035589;28;20025;-85
2023/12/02 01:58:12;;;;;;;35.95;17.02;;;0.30;99.90;;;;;;5038445;28;20017;-83
2023/12/02 02:00:39;;;;;;;35.17;15.02;;;0.30;99.90;;;;;;5042334;28;20033;-85
2023/12/02 02:03:06;;;;;;;33.45;15.35;;;0.30;99.90;;;;;;5035394;28;20469;-85
2023/12/02 02:05:32;;;;;;;30.75;14.57;;;0.30;99.90;;;;;;5039336;28;20039;-85
2023/12/02 02:07:57;;;;;;;31.50;15.35;;;0.30;99.90;;;;;;5034677;28;20095;-85
2023/12/02 02:10:23;;;;;;;33.50;15.27;;;0.20;99.90;;;;;;5038675;28;20034;-83
2023/12/02 02:12:48;;;;;;;31.52;14.73;;;0.20;99.90;;;;;;5036955;28;20132;-84
2023/12/02 02:15:14;;;;;;;31.27;15.00;;;0.20;99.90;;;;;;5038587;28;20025;-82
2023/12/02 02:17:40;;;;;;;36.30;16.80;;;0.20;99.90;;;;;;5039521;28;20398;-84
2023/12/02 02:20:08;;;;;;;35.38;17.35;;;0.20;99.90;;;;;;5037363;28;20029;-84
2023/12/02 02:22:34;;;;;;;32.92;14.90;;;0.20;99.90;;;;;;5032754;28;20075;-84
2023/12/02 02:24:59;;;;;;;36.63;17.15;;;0.20;99.90;;;;;;5029266;28;20214;-84
2023/12/02 02:27:25;;;;;;;33.95;15.48;;;0.20;99.90;;;;;;5036890;28;20038;-83
2023/12/02 02:29:51;;;;;;;37.65;15.95;;;0.20;99.90;;;;;;5035138;28;20030;-85
2023/12/02 02:32:16;;;;;;;36.80;16.77;;;0.20;99.90;;;;;;5038361;28;20409;-85
2023/12/02 02:34:42;;;;;;;32.08;15.50;;;0.20;99.90;;;;;;5039765;28;20056;-83
2023/12/02 02:37:08;;;;;;;31.65;15.45;;;0.20;99.90;;;;;;5036856;28;20463;-82
2023/12/02 02:39:34;;;;;;;34.55;16.35;;;0.20;99.90;;;;;;5037048;28;20079;-84
2023/12/02 02:42:05;;;;;;;36.38;17.17;;;0.20;99.90;;;;;;5037033;28;20049;-84
2023/12/02 02:44:32;;;;;;;30.73;15.88;;;0.20;99.90;;;;;;5031362;28;20363;-84
2023/12/02 02:46:58;;;;;;;32.78;16.48;;;0.20;99.90;;;;;;5039659;28;20385;-85
2023/12/02 02:49:24;;;;;;;35.17;16.38;;;0.20;99.90;;;;;;5034334;28;20089;-84
2023/12/02 02:51:49;;;;;;;36.45;16.42;;;0.10;99.90;;;;;;5038644;28;20022;-82
2023/12/02 02:54:15;;;;;;;35.10;16.95;;;0.10;99.90;;;;;;5034599;28;20029;-83
2023/12/02 02:56:43;;;;;;;31.63;14.57;;;0.10;99.90;;;;;;5040487;28;20099;-84
2023/12/02 02:59:08;;;;;;;36.35;15.70;;;0.00;99.90;;;;;;5031412;28;20105;-83
2023/12/02 03:01:34;;;;;;;34.78;17.65;;;0.10;99.90;;;;;;5033415;28;20123;-84
2023/12/02 03:04:00;;;;;;;37.28;15.13;;;0.10;99.90;;;;;;5036835;28;20053;-85
2023/12/02 03:06:26;;;;;;;33.47;15.07;;;0.10;99.90;;;;;;5027879;28;20030;-84
2023/12/02 03:08:51;;;;;;;31.13;15.25;;;0.10;99.90;;;;;;5031254;28;20099;-84
2023/12/02 03:11:17;;;;;;;37.47;17.27;;;0.10;99.90;;;;;;5031814;28;20083;-82
2023/12/02 03:13:42;;;;;;;29.50;14.27;;;0.00;99.90;;;;;;5032414;28;20022;-83
2023/12/02 03:16:08;;;;;;;32.38;16.73;;;0.00;99.90;;;;;;5039886;28;20028;-85
2023/12/02 03:18:34;;;;;;;28.98;14.07;;;0.00;99.90;;;;;;5037577;28;20022;-84
2023/12/02 03:21:00;;;;;;;30.45;14.82;;;0.00;99.90;;;;;;5038988;28;20036;-83
2023/12/02 03:23:25;;;;;;;32.97;16.35;;;0.00;99.90;;;;;;5034422;28;20103;-84
2023/12/02 03:25:51;;;;;;;32.58;15.85;;;-0.10;99.90;;;;;;5035682;28;20041;-85
2023/12/02 03:28:19;;;;;;;28.55;14.70;;;-0.10;99.90;;;;;;5035900;28;20398;-84
2023/12/02 03:30:45;;;;;;;31.95;14.57;;;-0.10;99.90;;;;;;5034185;28;20049;-84
2023/12/02 03:33:11;;;;;;;35.50;15.75;;;-0.10;99.90;;;;;;5036498;28;20029;-84
2023/12/02 03:35:36;;;;;;;34.45;15.82;;;-0.10;99.90;;;;;;5037125;28;20053;-84
2023/12/02 03:38:02;;;;;;;30.15;14.27;;;-0.10;99.90;;;;;;5035288;28;20505;-83
2023/12/02 03:40:27;;;;;;;29.98;14.68;;;-0.20;99.90;;;;;;5036343;28;20091;-84
2023/12/02 03:42:53;;;;;;;31.48;14.93;;;-0.20;99.90;;;;;;5033114;28;20391;-84
2023/12/02 03:45:19;;;;;;;32.45;14.63;;;-0.10;99.90;;;;;;5035992;28;20029;-85
2023/12/02 03:47:44;;;;;;;33.05;15.10;;;-0.10;99.90;;;;;;5038040;28;20029;-84
2023/12/02 03:50:10;;;;;;;34.22;16.00;;;-0.10;99.90;;;;;;5034071;28;20390;-85
2023/12/02 03:52:36;;;;;;;32.53;15.32;;;-0.10;99.90;;;;;;5036248;28;20026;-84
2023/12/02 03:55:02;;;;;;;31.10;15.50;;;0.00;99.90;;;;;;5032903;28;20029;-84
2023/12/02 03:57:27;;;;;;;31.90;15.50;;;0.00;99.90;;;;;;5036957;28;20084;-84
2023/12/02 03:59:53;;;;;;;32.63;15.38;;;-0.10;99.90;;;;;;5035521;28;20030;-84
2023/12/02 04:02:18;;;;;;;31.30;15.13;;;-0.10;99.90;;;;;;5036042;28;20025;-84
2023/12/02 04:04:44;;;;;;;32.88;14.20;;;-0.10;99.90;;;;;;5037394;28;20022;-84
2023/12/02 04:07:10;;;;;;;31.45;15.02;;;-0.20;99.90;;;;;;5034685;28;20478;-85
2023/12/02 04:09:35;;;;;;;31.55;15.05;;;-0.20;99.90;;;;;;5038647;28;20085;-84
2023/12/02 04:12:01;;;;;;;34.38;15.52;;;-0.20;99.90;;;;;;5032818;28;20551;-83
2023/12/02 04:14:26;;;;;;;35.67;15.60;;;-0.20;99.90;;;;;;5034237;28;20029;-83
2023/12/02 04:16:52;;;;;;;38.60;17.58;;;-0.10;99.90;;;;;;5034741;28;20025;-84
2023/12/02 04:19:18;;;;;;;35.80;15.82;;;-0.10;99.90;;;;;;5036885;28;20026;-84
2023/12/02 04:21:45;;;;;;;34.15;15.77;;;-0.10;99.90;;;;;;5035683;28;20056;-85
2023/12/02 04:24:11;;;;;;;34.75;16.17;;;-0.10;99.90;;;;;;5040371;28;20036;-85
2023/12/02 04:26:37;;;;;;;34.38;16.15;;;-0.10;99.90;;;;;;5034511;28;20025;-84
2023/12/02 04:29:03;;;;;;;35.67;16.33;;;-0.10;99.90;;;;;;5039592;28;20065;-85
2023/12/02 04:31:30;;;;;;;34.75;16.25;;;0.00;99.90;;;;;;5041061;28;20022;-84
2023/12/02 04:33:55;;;;;;;39.50;17.23;;;-0.10;99.90;;;;;;5040939;28;20022;-84
2023/12/02 04:36:21;;;;;;;37.42;16.65;;;-0.10;99.90;;;;;;5042180;28;20103;-84
2023/12/02 04:38:47;;;;;;;30.73;14.98;;;0.00;99.90;;;;;;5052413;28;20025;-83
2023/12/02 04:41:12;;;;;;;30.67;14.68;;;0.00;99.90;;;;;;5045175;28;20033;-84
2023/12/02 04:43:38;;;;;;;30.65;14.23;;;-0.10;99.90;;;;;;5040033;28;20029;-83
2023/12/02 04:46:06;;;;;;;28.02;14.30;;;0.00;99.90;;;;;;5040109;28;20033;-83
2023/12/02 04:48:33;;;;;;;29.52;13.30;;;-0.10;99.90;;;;;;5039431;28;20055;-85
2023/12/02 04:51:02;;;;;;;28.13;13.45;;;-0.10;99.90;;;;;;5039437;28;20025;-84
2023/12/02 04:53:28;;;;;;;26.77;13.18;;;0.00;99.90;;;;;;5042404;28;20021;-85
2023/12/02 04:55:54;;;;;;;20.67;11.02;;;-0.10;99.90;;;;;;5043610;28;20025;-84
2023/12/02 04:58:20;;;;;;;21.85;10.95;;;-0.10;99.90;;;;;;5041094;28;20021;-85
2023/12/02 05:00:46;;;;;;;21.50;10.65;;;-0.10;99.90;;;;;;5042416;28;20037;-84
2023/12/02 05:03:17;;;;;;;21.98;11.27;;;-0.10;99.90;;;;;;5039797;28;20041;-84
2023/12/02 05:05:43;;;;;;;22.85;11.15;;;-0.10;99.90;;;;;;5043621;28;20124;-85
2023/12/02 05:08:08;;;;;;;21.30;10.88;;;-0.10;99.90;;;;;;5044030;28;20033;-84
2023/12/02 05:10:36;;;;;;;20.63;10.38;;;-0.10;99.90;;;;;;5040427;28;20040;-84
2023/12/02 05:13:01;;;;;;;19.23;9.43;;;-0.10;99.90;;;;;;5040202;28;20029;-83
2023/12/02 05:15:27;;;;;;;18.58;9.23;;;-0.10;99.90;;;;;;5039363;28;20034;-82
2023/12/02 05:17:53;;;;;;;18.92;9.95;;;-0.10;99.90;;;;;;5040756;28;20032;-82
2023/12/02 05:20:19;;;;;;;17.70;8.50;;;-0.10;99.90;;;;;;5041329;28;20100;-82
2023/12/02 05:22:44;;;;;;;15.65;8.55;;;-0.10;99.90;;;;;;5039050;28;20025;-82
2023/12/02 05:25:10;;;;;;;16.58;8.38;;;-0.10;99.90;;;;;;5039304;28;20367;-84
2023/12/02 05:27:36;;;;;;;14.15;7.03;;;-0.10;99.90;;;;;;5036684;28;20032;-83
2023/12/02 05:30:04;;;;;;;13.55;7.30;;;-0.10;99.90;;;;;;5041027;28;20036;-84
2023/12/02 05:32:29;;;;;;;12.95;7.00;;;-0.10;99.90;;;;;;5038778;28;20033;-84
2023/12/02 05:34:55;;;;;;;12.50;6.72;;;-0.20;99.90;;;;;;5041321;28;20355;-84
2023/12/02 05:37:20;;;;;;;12.65;6.55;;;-0.20;99.90;;;;;;5038384;28;20430;-84
2023/12/02 05:39:46;;;;;;;13.43;6.55;;;-0.20;99.90;;;;;;5039992;28;20021;-84
2023/12/02 05:42:12;;;;;;;14.50;7.28;;;-0.20;99.90;;;;;;5039421;28;20045;-84
2023/12/02 05:44:40;;;;;;;12.75;6.88;;;-0.30;99.90;;;;;;5039241;28;20091;-84
2023/12/02 05:47:06;;;;;;;15.45;7.95;;;-0.30;99.90;;;;;;5034213;28;20079;-82
2023/12/02 05:49:32;;;;;;;15.00;8.02;;;-0.30;99.90;;;;;;5036991;28;20029;-84
2023/12/02 05:51:58;;;;;;;13.13;7.55;;;-0.30;99.90;;;;;;5039483;28;20441;-84
2023/12/02 05:54:24;;;;;;;15.25;7.15;;;-0.30;99.90;;;;;;5041300;28;20128;-84
2023/12/02 05:56:52;;;;;;;14.18;7.40;;;-0.30;99.90;;;;;;5039062;28;20113;-85
2023/12/02 05:59:19;;;;;;;15.25;7.68;;;-0.30;99.90;;;;;;5038874;28;20371;-83
2023/12/02 06:01:44;;;;;;;12.57;7.13;;;-0.30;99.90;;;;;;5038182;28;20025;-83
2023/12/02 06:04:10;;;;;;;14.23;7.00;;;-0.30;99.90;;;;;;5017228;28;20040;-84
2023/12/02 06:06:36;;;;;;;15.50;7.53;;;-0.30;99.90;;;;;;5037234;28;20049;-82
2023/12/02 06:09:02;;;;;;;15.52;7.85;;;-0.30;99.90;;;;;;5041756;28;20132;-84
2023/12/02 06:11:27;;;;;;;13.32;6.93;;;-0.40;99.90;;;;;;5039779;28;20025;-84
2023/12/02 06:13:53;;;;;;;15.52;8.00;;;-0.40;99.90;;;;;;5038300;28;20032;-86
2023/12/02 06:16:18;;;;;;;15.52;8.48;;;-0.40;99.90;;;;;;5038272;28;20057;-86
2023/12/02 06:18:44;;;;;;;17.05;9.02;;;-0.40;99.90;;;;;;5039648;28;20022;-85
2023/12/02 06:21:11;;;;;;;16.33;8.27;;;-0.40;99.90;;;;;;5037263;28;20029;-83
2023/12/02 06:23:37;;;;;;;14.50;7.78;;;-0.50;99.90;;;;;;5036266;28;20029;-85
2023/12/02 06:26:03;;;;;;;15.95;8.20;;;-0.40;99.90;;;;;;5039398;28;20029;-84
2023/12/02 06:28:29;;;;;;;13.80;7.72;;;-0.40;99.90;;;;;;5039370;28;20025;-84
2023/12/02 06:30:54;;;;;;;14.82;7.90;;;-0.50;99.90;;;;;;5040508;28;20065;-84
2023/12/02 06:33:20;;;;;;;15.70;7.88;;;-0.50;99.90;;;;;;5033505;28;20026;-83
2023/12/02 06:35:46;;;;;;;17.00;8.10;;;-0.40;99.90;;;;;;5034390;28;20033;-81
2023/12/02 06:38:11;;;;;;;15.40;8.10;;;-0.30;99.90;;;;;;5032302;28;20026;-85
2023/12/02 06:40:37;;;;;;;13.85;7.18;;;-0.40;99.90;;;;;;5049822;28;20091;-84
2023/12/02 06:43:03;;;;;;;15.93;7.72;;;-0.40;99.90;;;;;;5035090;28;20030;-83
2023/12/02 06:45:28;;;;;;;13.23;7.82;;;-0.40;99.90;;;;;;5038724;28;20036;-84
2023/12/02 06:47:54;;;;;;;15.45;7.47;;;-0.50;99.90;;;;;;5036606;28;20025;-85
2023/12/02 06:50:19;;;;;;;16.25;8.35;;;-0.50;99.90;;;;;;5037367;28;20033;-83
2023/12/02 06:52:46;;;;;;;15.45;7.95;;;-0.50;99.90;;;;;;5037732;28;20025;-84
2023/12/02 06:55:12;;;;;;;14.02;7.07;;;-0.50;99.90;;;;;;5030697;28;20486;-84
2023/12/02 06:57:37;;;;;;;14.70;8.10;;;-0.50;99.90;;;;;;5022851;28;20033;-85
2023/12/02 07:00:05;;;;;;;15.25;8.10;;;-0.50;99.90;;;;;;5036905;28;20087;-84
2023/12/02 07:02:31;;;;;;;14.95;8.27;;;-0.60;99.90;;;;;;5036427;28;20025;-84
2023/12/02 07:04:57;;;;;;;15.70;8.68;;;-0.60;99.90;;;;;;5038933;28;20025;-85
2023/12/02 07:07:22;;;;;;;15.82;8.50;;;-0.60;99.90;;;;;;5038350;28;20399;-83
2023/12/02 07:09:48;;;;;;;15.82;8.32;;;-0.60;99.90;;;;;;5031295;28;20033;-83
2023/12/02 07:12:13;;;;;;;18.33;8.93;;;-0.60;99.90;;;;;;5035665;28;20030;-83
2023/12/02 07:14:39;;;;;;;14.55;8.40;;;-0.60;99.90;;;;;;5043119;22;20045;-71
2023/12/02 07:17:07;;;;;;;15.65;8.52;;;-0.70;99.90;;;;;;5040700;28;20029;-71
2023/12/02 07:19:36;;;;;;;16.60;9.85;;;-0.70;99.90;;;;;;5041441;28;20026;-71
2023/12/02 07:22:05;;;;;;;17.95;9.73;;;-0.70;99.90;;;;;;5041302;28;20021;-70
2023/12/02 07:24:36;;;;;;;18.85;8.63;;;-0.70;99.90;;;;;;5045942;28;20044;-70
2023/12/02 07:27:02;;;;;;;21.80;9.75;;;-0.70;99.90;;;;;;5042381;28;20029;-71
2023/12/02 07:29:28;;;;;;;15.82;9.40;;;-0.60;99.90;;;;;;5050395;28;20040;-71
2023/12/02 07:31:53;;;;;;;17.55;9.00;;;-0.60;99.90;;;;;;5051753;28;20036;-70
2023/12/02 07:34:19;;;;;;;16.98;9.35;;;-0.60;99.90;;;;;;5050308;28;20025;-71
2023/12/02 07:36:59;;;;;;;18.77;9.63;;;-0.50;99.90;;;;;;5045317;28;20091;-71
2023/12/02 07:39:25;;;;;;;19.35;9.35;;;-0.50;99.90;;;;;;5047527;28;20067;-71
2023/12/02 07:41:50;;;;;;;19.13;9.13;;;-0.50;99.90;;;;;;5044794;28;20034;-71
2023/12/02 07:44:17;;;;;;;17.88;8.77;;;-0.40;99.90;;;;;;5042437;28;20017;-71
2023/12/02 07:46:48;;;;;;;15.70;7.63;;;-0.40;99.90;;;;;;5043642;28;20049;-71
2023/12/02 07:49:14;;;;;;;16.60;9.35;;;-0.50;99.90;;;;;;5042303;28;20087;-69
2023/12/02 07:51:40;;;;;;;16.65;8.50;;;-0.40;99.90;;;;;;5042760;28;20029;-70
2023/12/02 07:54:05;;;;;;;14.80;8.25;;;-0.50;99.90;;;;;;5047030;28;20108;-71
2023/12/02 07:56:47;;;;;;;16.08;8.68;;;-0.50;99.90;;;;;;5048526;28;20020;-70
2023/12/02 07:59:21;;;;;;;16.20;8.60;;;-0.50;99.90;;;;;;5050431;28;20649;-70
2023/12/02 08:01:47;;;;;;;20.52;9.52;;;-0.40;99.90;;;;;;5041205;28;20025;-70
2023/12/02 08:04:15;;;;;;;13.50;7.97;;;-0.40;99.90;;;;;;5054335;28;20514;-70
2023/12/02 08:06:41;;;;;;;15.52;7.72;;;-0.40;99.90;;;;;;5049069;28;20445;-70
2023/12/02 08:09:10;;;;;;;15.23;7.47;;;-0.40;99.90;;;;;;5054121;28;20041;-69
2023/12/02 08:11:38;;;;;;;15.13;7.95;;;-0.30;99.90;;;;;;5051847;28;20101;-70
2023/12/02 08:14:04;;;;;;;17.17;8.38;;;-0.30;99.90;;;;;;5052917;28;20035;-71
2023/12/02 08:16:29;;;;;;;14.90;8.05;;;-0.40;99.90;;;;;;5051588;28;20028;-71
2023/12/02 08:18:55;;;;;;;12.45;6.65;;;-0.40;99.90;;;;;;5045687;28;20029;-71
2023/12/02 08:21:20;;;;;;;16.45;8.23;;;-0.40;99.90;;;;;;5048877;28;20506;-70
2023/12/02 08:23:46;;;;;;;22.20;9.07;;;-0.50;99.90;;;;;;5050418;28;20032;-70
2023/12/02 08:26:12;;;;;;;15.98;8.90;;;-0.50;99.90;;;;;;5051062;28;20048;-70
2023/12/02 08:28:38;;;;;;;18.17;8.75;;;-0.50;99.90;;;;;;5052752;28;20316;-70
2023/12/02 08:31:06;;;;;;;15.60;8.27;;;-0.40;99.90;;;;;;5052787;28;20067;-70
2023/12/02 08:33:32;;;;;;;18.15;9.90;;;-0.50;99.90;;;;;;5052450;28;20104;-70
2023/12/02 08:35:58;;;;;;;20.40;9.82;;;-0.50;99.90;;;;;;5049951;28;20516;-70
2023/12/02 08:38:24;;;;;;;19.90;9.52;;;-0.40;99.90;;;;;;5053803;28;20021;-70
2023/12/02 08:40:49;;;;;;;18.88;9.25;;;-0.50;99.90;;;;;;5051981;28;20442;-70
2023/12/02 08:43:15;;;;;;;19.02;9.90;;;-0.50;99.90;;;;;;5047507;28;20521;-70
2023/12/02 08:45:41;;;;;;;24.60;12.80;;;-0.50;99.90;;;;;;5047967;28;20571;-71
2023/12/02 08:48:06;;;;;;;20.23;9.98;;;-0.50;99.90;;;;;;5052867;28;20039;-70
2023/12/02 08:50:38;;;;;;;22.30;10.48;;;-0.50;99.90;;;;;;5049441;28;20475;-70
2023/12/02 08:53:03;;;;;;;19.02;9.95;;;-0.50;99.90;;;;;;5052026;28;20056;-71
2023/12/02 08:55:29;;;;;;;16.88;9.18;;;-0.40;99.90;;;;;;5053932;28;20448;-71
2023/12/02 08:57:57;;;;;;;17.52;8.93;;;-0.50;99.90;;;;;;5046904;28;20036;-71
2023/12/02 09:00:23;;;;;;;19.23;10.25;;;-0.50;99.90;;;;;;5054775;28;20030;-70
2023/12/02 09:02:49;;;;;;;19.05;9.77;;;-0.60;99.90;;;;;;5052153;28;20071;-69
2023/12/02 09:05:15;;;;;;;21.65;11.13;;;-0.60;99.90;;;;;;5053751;28;20055;-70
2023/12/02 09:07:41;;;;;;;21.98;11.38;;;-0.70;99.90;;;;;;5045278;28;20037;-70
2023/12/02 09:10:09;;;;;;;24.55;12.20;;;-0.70;99.90;;;;;;5047066;28;20033;-70
2023/12/02 09:12:38;;;;;;;22.40;11.68;;;-0.70;99.90;;;;;;5046513;28;20128;-71
2023/12/02 09:15:28;;;;;;;25.90;11.18;;;-0.60;99.90;;;;;;5045252;28;20025;-71
2023/12/02 09:18:12;;;;;;;25.10;12.15;;;-0.60;99.90;;;;;;5066429;28;20471;-70
2023/12/02 09:20:40;;;;;;;23.02;11.25;;;-0.60;99.90;;;;;;5050153;28;20021;-71
2023/12/02 09:23:06;;;;;;;25.27;11.88;;;-0.60;99.90;;;;;;5049866;28;20071;-71
2023/12/02 09:25:38;;;;;;;17.40;9.90;;;-0.60;99.90;;;;;;5047785;28;20052;-70
2023/12/02 09:28:11;;;;;;;25.20;13.43;;;-0.60;99.90;;;;;;5049112;28;20024;-70
2023/12/02 09:30:40;;;;;;;22.77;11.05;;;-0.60;99.90;;;;;;5048769;28;20291;-71
2023/12/02 09:33:06;;;;;;;20.65;10.57;;;-0.60;99.90;;;;;;5048979;28;20032;-70
2023/12/02 09:35:35;;;;;;;25.35;11.45;;;-0.60;99.90;;;;;;5037430;28;20021;-71
2023/12/02 09:38:02;;;;;;;21.05;10.38;;;-0.60;99.90;;;;;;5059759;28;20581;-71
2023/12/02 09:41:02;;;;;;;27.50;11.88;;;-0.60;99.90;;;;;;5054391;28;20017;-71
2023/12/02 09:43:50;;;;;;;22.90;11.13;;;-0.60;99.90;;;;;;5052219;28;20044;-71
2023/12/02 09:46:33;;;;;;;22.80;11.43;;;-0.50;99.90;;;;;;5048976;28;20026;-71
2023/12/02 09:49:12;;;;;;;23.70;11.63;;;-0.50;99.90;;;;;;5045731;28;20017;-71
2023/12/02 09:52:18;;;;;;;21.02;10.35;;;-0.50;99.90;;;;;;5052913;28;20040;-71
2023/12/02 09:55:02;;;;;;;22.17;11.60;;;-0.50;99.90;;;;;;5052884;28;20021;-71
2023/12/02 09:57:56;;;;;;;25.58;12.90;;;-0.60;99.90;;;;;;5048575;28;20068;-70
2023/12/02 10:00:38;;;;;;;24.70;12.38;;;-0.60;99.90;;;;;;5042314;28;20064;-70
2023/12/02 10:03:21;;;;;;;22.23;11.68;;;-0.60;99.90;;;;;;5042736;28;20494;-70
2023/12/02 10:06:34;;;;;;;22.80;11.32;;;-0.60;99.90;;;;;;5050668;28;20409;-70
2023/12/02 10:09:08;;;;;;;23.88;11.50;;;-0.70;99.90;;;;;;5041578;28;20411;-72
2023/12/02 10:12:04;;;;;;;22.92;11.13;;;-0.70;99.90;;;;;;5040353;28;20391;-72
2023/12/02 10:14:33;;;;;;;23.00;11.70;;;-0.70;99.90;;;;;;5045209;28;20028;-71
2023/12/02 10:17:04;;;;;;;26.08;12.50;;;-0.80;99.90;;;;;;5051498;28;20016;-71
2023/12/02 10:19:39;;;;;;;23.13;11.35;;;-0.70;99.90;;;;;;5043993;28;20021;-71
2023/12/02 10:22:10;;;;;;;24.77;12.10;;;-0.70;99.90;;;;;;5043436;28;20025;-73
2023/12/02 10:24:45;;;;;;;23.20;12.68;;;-0.70;99.90;;;;;;5040480;28;20057;-71
2023/12/02 10:27:16;;;;;;;23.98;12.45;;;-0.60;99.90;;;;;;5037653;28;20030;-72
2023/12/02 10:29:55;;;;;;;24.05;11.48;;;-0.50;99.90;;;;;;5045927;28;20029;-72
2023/12/02 10:32:23;;;;;;;28.15;13.85;;;-0.40;99.90;;;;;;5052674;28;20456;-72
2023/12/02 10:35:01;;;;;;;23.40;12.50;;;-0.40;99.90;;;;;;5052433;28;20021;-72
2023/12/02 10:37:37;;;;;;;24.58;12.48;;;-0.40;99.90;;;;;;5046046;28;20021;-72
2023/12/02 10:40:08;;;;;;;21.85;12.43;;;-0.30;99.90;;;;;;5058928;28;20013;-72
2023/12/02 10:42:55;;;;;;;23.45;11.48;;;-0.20;99.90;;;;;;5047370;28;20092;-72
2023/12/02 10:45:25;;;;;;;18.15;9.63;;;-0.20;99.90;;;;;;5041537;28;20021;-72
2023/12/02 10:47:52;;;;;;;19.30;9.85;;;-0.20;99.90;;;;;;5062865;28;20031;-72
2023/12/02 10:50:20;;;;;;;21.05;10.60;;;-0.20;99.90;;;;;;5051220;28;20515;-72
2023/12/02 10:53:03;;;;;;;19.40;8.70;;;-0.10;99.90;;;;;;5047748;28;20017;-72
2023/12/02 10:55:36;;;;;;;17.03;9.37;;;-0.10;99.90;;;;;;5054641;28;20394;-72
2023/12/02 10:58:04;;;;;;;17.90;9.70;;;-0.20;99.90;;;;;;5067942;28;20033;-69
2023/12/02 11:00:58;;;;;;;14.70;8.52;;;-0.20;99.90;;;;;;5038424;28;20448;-72
2023/12/02 11:03:36;;;;;;;16.83;9.07;;;-0.20;99.90;;;;;;5046659;28;20476;-72
2023/12/02 11:06:21;;;;;;;22.00;9.45;;;-0.20;99.90;;;;;;5052767;28;20029;-72
2023/12/02 11:09:10;;;;;;;17.70;9.75;;;-0.20;99.90;;;;;;5061063;28;20046;-72
2023/12/02 11:11:52;;;;;;;20.35;9.07;;;-0.30;99.90;;;;;;5044805;28;20502;-72
2023/12/02 11:14:23;;;;;;;20.55;10.38;;;-0.30;99.90;;;;;;5063784;28;20036;-72
2023/12/02 11:17:24;;;;;;;22.40;11.10;;;-0.30;99.90;;;;;;5057770;28;20036;-72
2023/12/02 11:20:08;;;;;;;25.90;11.38;;;-0.30;99.90;;;;;;5029132;28;20491;-72
2023/12/02 11:23:05;;;;;;;21.63;10.27;;;-0.30;99.90;;;;;;5043799;28;20020;-72
2023/12/02 11:26:07;;;;;;;17.70;9.90;;;-0.30;99.90;;;;;;5039570;28;20032;-72
2023/12/02 11:28:59;;;;;;;17.88;9.07;;;-0.30;99.90;;;;;;5051338;28;20040;-72
2023/12/02 11:32:02;;;;;;;22.80;10.77;;;-0.30;99.90;;;;;;5038178;28;20033;-72
2023/12/02 11:34:52;;;;;;;15.60;9.95;;;-0.30;99.90;;;;;;5033887;28;20543;-72
2023/12/02 11:37:57;;;;;;;21.35;10.82;;;-0.30;99.90;;;;;;5051934;28;20025;-71
2023/12/02 11:41:11;;;;;;;23.95;9.82;;;-0.20;99.90;;;;;;5035814;28;20062;-72
2023/12/02 11:44:14;;;;;;;21.10;10.60;;;-0.30;99.90;;;;;;5044658;28;20123;-72
2023/12/02 11:47:04;;;;;;;24.55;12.23;;;-0.30;99.90;;;;;;5047677;28;20029;-71
2023/12/02 11:50:01;;;;;;;17.38;9.80;;;-0.20;99.90;;;;;;5044884;28;20024;-72
2023/12/02 11:52:45;;;;;;;18.05;10.35;;;-0.20;99.90;;;;;;5033287;28;20034;-72
2023/12/02 11:55:29;;;;;;;;;;;-0.20;99.90;;;;;;5049857;28;20017;-71
2023/12/02 11:58:10;;;;;;;20.95;10.98;;;-0.30;99.90;;;;;;5051078;28;19904;-72
2023/12/02 12:01:20;;;;;;;21.02;10.88;;;-0.20;99.90;;;;;;5051478;28;20021;-72
2023/12/02 12:04:00;;;;;;;18.73;9.88;;;-0.30;99.90;;;;;;5037956;28;20043;-72
2023/12/02 12:07:04;;;;;;;20.65;10.75;;;-0.30;99.90;;;;;;5072629;28;20020;-72
2023/12/02 12:09:33;;;;;;;21.00;11.38;;;-0.20;99.90;;;;;;5048639;28;20037;-72
2023/12/02 12:12:00;;;;;;;23.13;12.75;;;-0.30;99.90;;;;;;5073032;28;20032;-72
2023/12/02 12:14:39;;;;;;;19.27;11.02;;;-0.30;99.90;;;;;;5072944;28;20035;-71
2023/12/02 12:17:06;;;;;;;18.58;10.07;;;-0.30;99.90;;;;;;5048187;28;20056;-71
2023/12/02 12:19:32;;;;;;;22.88;12.73;;;-0.40;99.90;;;;;;5066223;28;20541;-70
2023/12/02 12:21:57;;;;;;;21.63;11.30;;;-0.50;99.90;;;;;;5070964;28;20025;-70
2023/12/02 12:24:23;;;;;;;21.58;10.98;;;-0.40;99.90;;;;;;5065517;28;20028;-70
2023/12/02 12:26:51;;;;;;;19.45;10.73;;;-0.60;99.90;;;;;;5072717;28;20024;-70
2023/12/02 12:29:20;;;;;;;23.52;11.20;;;-0.50;99.90;;;;;;5062281;28;20025;-70
2023/12/02 12:31:46;;;;;;;21.45;10.95;;;-0.50;99.90;;;;;;5051925;28;20060;-70
2023/12/02 12:34:12;;;;;;;21.52;11.07;;;-0.50;99.90;;;;;;5053828;28;20383;-70
2023/12/02 12:36:53;;;;;;;20.73;11.32;;;-0.50;99.90;;;;;;5052884;28;20084;-70
2023/12/02 12:39:21;;;;;;;21.52;11.75;;;-0.60;99.90;;;;;;5032921;28;20025;-70
2023/12/02 12:41:47;;;;;;;25.70;12.85;;;-0.70;99.90;;;;;;5044527;28;20440;-70
2023/12/02 12:44:19;;;;;;;21.70;10.98;;;-0.70;99.90;;;;;;5056553;28;20044;-70
2023/12/02 12:46:45;;;;;;;20.17;10.50;;;-0.70;99.90;;;;;;5046962;28;20033;-71